Armstrong, Florida
Current Conditions -  °F | °C
As of 1:58 AM on Wednesday 22 Oct 2014 (Local Time) from KSGJ Reporting Station
Clear Clear  
Wind Chill: 67°   Ceiling: Unl
Heat Index: 67°   Visibility: 9mi
Dew Point: 66°   Wind: 6mph
Humidity: 97%   Direction: 280°W
Pressure: 29.95"   Gusts: NA
Location:  29.7919°N, 81.4499°W
Report Text: KSGJ 220558Z AUTO 28005KT 9SM CLR 19/19 A2995 RMK AO2 SLP142 T01940189 10228 20189 58006
Loading
Personal Weather Stations






























Interactive Weather Map
Tropical Storm Tracking
New forecast layout! Learn more

10-Day Weather Forecast

Advertisements
Track Severe Weather on mobile